sensor_id;sensor_type;location;lat;lon;timestamp;P1;durP1;ratioP1;P2;durP2;ratioP2
12925;SDS011;6529;50.566;9.774;2023-06-14T00:00:39;3.97;;;3.33;;
12925;SDS011;6529;50.566;9.774;2023-06-14T00:03:08;3.77;;;3.10;;
12925;SDS011;6529;50.566;9.774;2023-06-14T00:05:35;3.50;;;3.20;;
12925;SDS011;6529;50.566;9.774;2023-06-14T00:08:05;5.20;;;3.03;;
12925;SDS011;6529;50.566;9.774;2023-06-14T00:10:33;3.50;;;3.20;;
12925;SDS011;6529;50.566;9.774;2023-06-14T00:13:00;4.23;;;3.40;;
12925;SDS011;6529;50.566;9.774;2023-06-14T00:15:30;4.70;;;3.37;;
12925;SDS011;6529;50.566;9.774;2023-06-14T00:17:56;4.20;;;3.40;;
12925;SDS011;6529;50.566;9.774;2023-06-14T00:20:25;5.80;;;3.60;;
12925;SDS011;6529;50.566;9.774;2023-06-14T00:22:55;4.13;;;3.20;;
12925;SDS011;6529;50.566;9.774;2023-06-14T00:25:22;4.00;;;3.60;;
12925;SDS011;6529;50.566;9.774;2023-06-14T00:27:50;5.53;;;3.50;;
12925;SDS011;6529;50.566;9.774;2023-06-14T00:30:16;4.00;;;3.50;;
12925;SDS011;6529;50.566;9.774;2023-06-14T00:32:41;3.80;;;3.33;;
12925;SDS011;6529;50.566;9.774;2023-06-14T00:35:08;3.60;;;3.13;;
12925;SDS011;6529;50.566;9.774;2023-06-14T00:37:34;3.87;;;3.17;;
12925;SDS011;6529;50.566;9.774;2023-06-14T00:40:00;3.80;;;3.30;;
12925;SDS011;6529;50.566;9.774;2023-06-14T00:42:26;4.63;;;3.30;;
12925;SDS011;6529;50.566;9.774;2023-06-14T00:44:52;4.00;;;3.53;;
12925;SDS011;6529;50.566;9.774;2023-06-14T00:47:18;3.73;;;3.40;;
12925;SDS011;6529;50.566;9.774;2023-06-14T00:49:45;5.10;;;3.73;;
12925;SDS011;6529;50.566;9.774;2023-06-14T00:52:17;5.00;;;3.30;;
12925;SDS011;6529;50.566;9.774;2023-06-14T00:54:43;4.57;;;3.53;;
12925;SDS011;6529;50.566;9.774;2023-06-14T00:57:10;4.07;;;3.40;;
12925;SDS011;6529;50.566;9.774;2023-06-14T00:59:42;5.27;;;3.70;;
12925;SDS011;6529;50.566;9.774;2023-06-14T01:02:12;5.90;;;3.53;;
12925;SDS011;6529;50.566;9.774;2023-06-14T01:04:40;3.63;;;3.30;;
12925;SDS011;6529;50.566;9.774;2023-06-14T01:10:07;4.17;;;3.43;;
12925;SDS011;6529;50.566;9.774;2023-06-14T01:15:30;5.50;;;3.30;;
12925;SDS011;6529;50.566;9.774;2023-06-14T01:17:56;4.83;;;3.53;;
12925;SDS011;6529;50.566;9.774;2023-06-14T01:20:31;4.83;;;3.90;;
12925;SDS011;6529;50.566;9.774;2023-06-14T01:23:01;4.63;;;3.50;;
12925;SDS011;6529;50.566;9.774;2023-06-14T01:25:27;4.67;;;3.53;;
12925;SDS011;6529;50.566;9.774;2023-06-14T01:27:53;4.00;;;3.53;;
12925;SDS011;6529;50.566;9.774;2023-06-14T01:30:23;4.93;;;3.60;;
12925;SDS011;6529;50.566;9.774;2023-06-14T01:32:53;6.07;;;3.83;;
12925;SDS011;6529;50.566;9.774;2023-06-14T01:35:19;5.33;;;3.60;;
12925;SDS011;6529;50.566;9.774;2023-06-14T01:37:46;4.67;;;3.77;;
12925;SDS011;6529;50.566;9.774;2023-06-14T01:40:13;4.07;;;3.60;;
12925;SDS011;6529;50.566;9.774;2023-06-14T01:42:40;5.03;;;3.63;;
12925;SDS011;6529;50.566;9.774;2023-06-14T01:45:07;5.50;;;3.67;;
12925;SDS011;6529;50.566;9.774;2023-06-14T01:47:35;5.83;;;3.63;;
12925;SDS011;6529;50.566;9.774;2023-06-14T01:50:01;5.23;;;3.70;;
12925;SDS011;6529;50.566;9.774;2023-06-14T01:52:30;4.33;;;3.40;;
12925;SDS011;6529;50.566;9.774;2023-06-14T01:54:56;3.67;;;3.37;;
12925;SDS011;6529;50.566;9.774;2023-06-14T01:57:23;5.30;;;3.83;;
12925;SDS011;6529;50.566;9.774;2023-06-14T01:59:50;5.47;;;3.90;;
12925;SDS011;6529;50.566;9.774;2023-06-14T02:02:16;3.60;;;3.30;;
12925;SDS011;6529;50.566;9.774;2023-06-14T02:04:41;3.87;;;3.57;;
12925;SDS011;6529;50.566;9.774;2023-06-14T02:07:07;4.60;;;3.90;;
12925;SDS011;6529;50.566;9.774;2023-06-14T02:09:33;4.77;;;3.80;;
12925;SDS011;6529;50.566;9.774;2023-06-14T02:12:00;5.73;;;3.80;;
12925;SDS011;6529;50.566;9.774;2023-06-14T02:14:25;4.27;;;3.57;;
12925;SDS011;6529;50.566;9.774;2023-06-14T02:16:52;5.00;;;3.63;;
12925;SDS011;6529;50.566;9.774;2023-06-14T02:19:18;4.00;;;3.57;;
12925;SDS011;6529;50.566;9.774;2023-06-14T02:21:45;5.63;;;3.80;;
12925;SDS011;6529;50.566;9.774;2023-06-14T02:24:11;4.30;;;3.70;;
12925;SDS011;6529;50.566;9.774;2023-06-14T02:26:37;3.90;;;3.47;;
12925;SDS011;6529;50.566;9.774;2023-06-14T02:29:03;4.53;;;3.83;;
12925;SDS011;6529;50.566;9.774;2023-06-14T02:31:35;4.53;;;3.57;;
12925;SDS011;6529;50.566;9.774;2023-06-14T02:34:00;6.83;;;4.10;;
12925;SDS011;6529;50.566;9.774;2023-06-14T02:36:26;5.57;;;3.83;;
12925;SDS011;6529;50.566;9.774;2023-06-14T02:38:52;5.20;;;3.83;;
12925;SDS011;6529;50.566;9.774;2023-06-14T02:41:19;5.20;;;3.53;;
12925;SDS011;6529;50.566;9.774;2023-06-14T02:43:44;4.80;;;3.87;;
12925;SDS011;6529;50.566;9.774;2023-06-14T02:46:10;5.47;;;3.70;;
12925;SDS011;6529;50.566;9.774;2023-06-14T02:48:36;5.33;;;3.83;;
12925;SDS011;6529;50.566;9.774;2023-06-14T02:51:01;3.90;;;3.53;;
12925;SDS011;6529;50.566;9.774;2023-06-14T02:53:27;4.80;;;3.80;;
12925;SDS011;6529;50.566;9.774;2023-06-14T02:55:53;4.80;;;4.03;;
12925;SDS011;6529;50.566;9.774;2023-06-14T02:58:20;5.47;;;4.10;;
12925;SDS011;6529;50.566;9.774;2023-06-14T03:00:46;4.47;;;3.77;;
12925;SDS011;6529;50.566;9.774;2023-06-14T03:03:11;4.03;;;3.63;;
12925;SDS011;6529;50.566;9.774;2023-06-14T03:05:41;5.93;;;4.17;;
12925;SDS011;6529;50.566;9.774;2023-06-14T03:08:14;4.90;;;4.10;;
12925;SDS011;6529;50.566;9.774;2023-06-14T03:10:47;4.30;;;3.90;;
12925;SDS011;6529;50.566;9.774;2023-06-14T03:13:13;6.00;;;3.60;;
12925;SDS011;6529;50.566;9.774;2023-06-14T03:15:40;4.43;;;3.70;;
12925;SDS011;6529;50.566;9.774;2023-06-14T03:18:09;6.10;;;3.90;;
12925;SDS011;6529;50.566;9.774;2023-06-14T03:20:37;5.53;;;4.10;;
12925;SDS011;6529;50.566;9.774;2023-06-14T03:23:03;6.27;;;4.50;;
12925;SDS011;6529;50.566;9.774;2023-06-14T03:25:30;6.07;;;4.00;;
12925;SDS011;6529;50.566;9.774;2023-06-14T03:27:56;4.50;;;3.93;;
12925;SDS011;6529;50.566;9.774;2023-06-14T03:30:22;5.97;;;4.03;;
12925;SDS011;6529;50.566;9.774;2023-06-14T03:32:48;4.47;;;3.80;;
12925;SDS011;6529;50.566;9.774;2023-06-14T03:35:14;4.43;;;3.73;;
12925;SDS011;6529;50.566;9.774;2023-06-14T03:37:45;4.20;;;3.60;;
12925;SDS011;6529;50.566;9.774;2023-06-14T03:40:12;5.73;;;3.90;;
12925;SDS011;6529;50.566;9.774;2023-06-14T03:42:38;4.60;;;4.10;;
12925;SDS011;6529;50.566;9.774;2023-06-14T03:45:05;5.70;;;3.83;;
12925;SDS011;6529;50.566;9.774;2023-06-14T03:47:31;6.50;;;4.00;;
12925;SDS011;6529;50.566;9.774;2023-06-14T03:49:57;4.50;;;3.80;;
12925;SDS011;6529;50.566;9.774;2023-06-14T03:52:22;4.40;;;3.80;;
12925;SDS011;6529;50.566;9.774;2023-06-14T03:54:48;4.97;;;3.83;;
12925;SDS011;6529;50.566;9.774;2023-06-14T03:57:14;4.73;;;4.00;;
12925;SDS011;6529;50.566;9.774;2023-06-14T03:59:40;4.30;;;3.90;;
12925;SDS011;6529;50.566;9.774;2023-06-14T04:02:06;4.17;;;3.70;;
12925;SDS011;6529;50.566;9.774;2023-06-14T04:04:32;6.47;;;4.30;;
12925;SDS011;6529;50.566;9.774;2023-06-14T04:07:00;4.77;;;3.90;;
12925;SDS011;6529;50.566;9.774;2023-06-14T04:09:28;4.60;;;4.17;;
12925;SDS011;6529;50.566;9.774;2023-06-14T04:11:55;5.03;;;4.13;;
12925;SDS011;6529;50.566;9.774;2023-06-14T04:14:20;5.10;;;4.20;;
12925;SDS011;6529;50.566;9.774;2023-06-14T04:16:46;5.73;;;4.50;;
12925;SDS011;6529;50.566;9.774;2023-06-14T04:19:13;6.27;;;4.47;;
12925;SDS011;6529;50.566;9.774;2023-06-14T04:21:39;5.73;;;3.90;;
12925;SDS011;6529;50.566;9.774;2023-06-14T04:24:05;5.67;;;4.00;;
12925;SDS011;6529;50.566;9.774;2023-06-14T04:26:31;4.87;;;4.20;;
12925;SDS011;6529;50.566;9.774;2023-06-14T04:28:59;4.67;;;3.93;;
12925;SDS011;6529;50.566;9.774;2023-06-14T04:31:28;5.17;;;4.30;;
12925;SDS011;6529;50.566;9.774;2023-06-14T04:33:54;7.23;;;4.50;;
12925;SDS011;6529;50.566;9.774;2023-06-14T04:36:20;4.20;;;3.80;;
12925;SDS011;6529;50.566;9.774;2023-06-14T04:38:46;6.13;;;4.50;;
12925;SDS011;6529;50.566;9.774;2023-06-14T04:41:12;5.30;;;3.87;;
12925;SDS011;6529;50.566;9.774;2023-06-14T04:43:37;4.17;;;3.77;;
12925;SDS011;6529;50.566;9.774;2023-06-14T04:46:04;5.03;;;3.90;;
12925;SDS011;6529;50.566;9.774;2023-06-14T04:48:31;6.27;;;4.50;;
12925;SDS011;6529;50.566;9.774;2023-06-14T04:50:57;5.70;;;4.53;;
12925;SDS011;6529;50.566;9.774;2023-06-14T04:53:22;5.57;;;4.50;;
12925;SDS011;6529;50.566;9.774;2023-06-14T04:55:48;5.17;;;4.00;;
12925;SDS011;6529;50.566;9.774;2023-06-14T04:58:15;4.60;;;4.13;;
12925;SDS011;6529;50.566;9.774;2023-06-14T05:00:41;6.00;;;4.30;;
12925;SDS011;6529;50.566;9.774;2023-06-14T05:03:08;5.77;;;4.30;;
12925;SDS011;6529;50.566;9.774;2023-06-14T05:05:34;5.00;;;4.23;;
12925;SDS011;6529;50.566;9.774;2023-06-14T05:08:00;5.50;;;4.10;;
12925;SDS011;6529;50.566;9.774;2023-06-14T05:10:25;4.60;;;4.10;;
12925;SDS011;6529;50.566;9.774;2023-06-14T05:12:51;8.10;;;3.93;;
12925;SDS011;6529;50.566;9.774;2023-06-14T05:15:17;4.70;;;4.20;;
12925;SDS011;6529;50.566;9.774;2023-06-14T05:17:45;6.23;;;4.20;;
12925;SDS011;6529;50.566;9.774;2023-06-14T05:20:12;5.30;;;3.90;;
12925;SDS011;6529;50.566;9.774;2023-06-14T05:22:37;6.73;;;3.90;;
12925;SDS011;6529;50.566;9.774;2023-06-14T05:25:03;5.90;;;4.10;;
12925;SDS011;6529;50.566;9.774;2023-06-14T05:27:29;5.37;;;3.70;;
12925;SDS011;6529;50.566;9.774;2023-06-14T05:29:55;5.00;;;4.50;;
12925;SDS011;6529;50.566;9.774;2023-06-14T05:32:23;4.57;;;4.03;;
12925;SDS011;6529;50.566;9.774;2023-06-14T05:34:49;7.40;;;4.53;;
12925;SDS011;6529;50.566;9.774;2023-06-14T05:37:15;5.80;;;3.70;;
12925;SDS011;6529;50.566;9.774;2023-06-14T05:39:41;4.87;;;4.10;;
12925;SDS011;6529;50.566;9.774;2023-06-14T05:42:07;4.80;;;3.87;;
12925;SDS011;6529;50.566;9.774;2023-06-14T05:44:32;4.20;;;3.77;;
12925;SDS011;6529;50.566;9.774;2023-06-14T05:46:58;4.00;;;3.67;;
12925;SDS011;6529;50.566;9.774;2023-06-14T05:49:24;4.10;;;3.70;;
12925;SDS011;6529;50.566;9.774;2023-06-14T05:51:49;5.93;;;4.10;;
12925;SDS011;6529;50.566;9.774;2023-06-14T05:54:15;5.53;;;3.70;;
12925;SDS011;6529;50.566;9.774;2023-06-14T05:56:40;4.53;;;3.60;;
12925;SDS011;6529;50.566;9.774;2023-06-14T05:59:06;4.27;;;3.87;;
12925;SDS011;6529;50.566;9.774;2023-06-14T06:01:31;4.50;;;3.70;;
12925;SDS011;6529;50.566;9.774;2023-06-14T06:03:58;4.40;;;3.70;;
12925;SDS011;6529;50.566;9.774;2023-06-14T06:06:24;3.77;;;3.20;;
12925;SDS011;6529;50.566;9.774;2023-06-14T06:08:50;3.53;;;3.10;;
12925;SDS011;6529;50.566;9.774;2023-06-14T06:11:15;4.10;;;3.47;;
12925;SDS011;6529;50.566;9.774;2023-06-14T06:13:41;4.10;;;3.07;;
12925;SDS011;6529;50.566;9.774;2023-06-14T06:16:06;6.23;;;3.50;;
12925;SDS011;6529;50.566;9.774;2023-06-14T06:18:32;4.07;;;3.17;;
12925;SDS011;6529;50.566;9.774;2023-06-14T06:20:58;4.90;;;2.97;;
12925;SDS011;6529;50.566;9.774;2023-06-14T06:23:23;3.97;;;3.17;;
12925;SDS011;6529;50.566;9.774;2023-06-14T06:25:49;3.10;;;2.80;;
12925;SDS011;6529;50.566;9.774;2023-06-14T06:28:15;4.27;;;3.30;;
12925;SDS011;6529;50.566;9.774;2023-06-14T06:30:41;3.80;;;2.90;;
12925;SDS011;6529;50.566;9.774;2023-06-14T06:33:06;3.37;;;3.07;;
12925;SDS011;6529;50.566;9.774;2023-06-14T06:35:32;3.63;;;2.93;;
12925;SDS011;6529;50.566;9.774;2023-06-14T06:37:58;4.03;;;3.53;;
12925;SDS011;6529;50.566;9.774;2023-06-14T06:40:24;4.97;;;3.30;;
12925;SDS011;6529;50.566;9.774;2023-06-14T06:42:49;4.53;;;3.40;;
12925;SDS011;6529;50.566;9.774;2023-06-14T06:45:15;3.77;;;3.40;;
12925;SDS011;6529;50.566;9.774;2023-06-14T06:47:41;3.73;;;3.40;;
12925;SDS011;6529;50.566;9.774;2023-06-14T06:50:06;4.20;;;3.53;;
12925;SDS011;6529;50.566;9.774;2023-06-14T06:52:32;4.73;;;3.67;;
12925;SDS011;6529;50.566;9.774;2023-06-14T06:54:58;5.37;;;3.30;;
12925;SDS011;6529;50.566;9.774;2023-06-14T06:57:24;4.90;;;3.60;;
12925;SDS011;6529;50.566;9.774;2023-06-14T06:59:49;3.93;;;3.20;;
12925;SDS011;6529;50.566;9.774;2023-06-14T07:02:16;4.00;;;3.23;;
12925;SDS011;6529;50.566;9.774;2023-06-14T07:04:41;3.80;;;3.20;;
12925;SDS011;6529;50.566;9.774;2023-06-14T07:07:07;4.10;;;3.70;;
12925;SDS011;6529;50.566;9.774;2023-06-14T07:09:34;4.67;;;3.63;;
12925;SDS011;6529;50.566;9.774;2023-06-14T07:12:00;5.30;;;3.20;;
12925;SDS011;6529;50.566;9.774;2023-06-14T07:14:26;3.53;;;3.10;;
12925;SDS011;6529;50.566;9.774;2023-06-14T07:16:52;3.77;;;3.13;;
12925;SDS011;6529;50.566;9.774;2023-06-14T07:19:17;4.13;;;3.10;;
12925;SDS011;6529;50.566;9.774;2023-06-14T07:21:43;3.70;;;3.30;;
12925;SDS011;6529;50.566;9.774;2023-06-14T07:24:09;4.90;;;3.30;;
12925;SDS011;6529;50.566;9.774;2023-06-14T07:26:35;4.27;;;3.30;;
12925;SDS011;6529;50.566;9.774;2023-06-14T07:29:01;10.23;;;3.47;;
12925;SDS011;6529;50.566;9.774;2023-06-14T07:31:26;3.60;;;3.27;;
12925;SDS011;6529;50.566;9.774;2023-06-14T07:33:52;6.80;;;3.63;;
12925;SDS011;6529;50.566;9.774;2023-06-14T07:36:18;5.77;;;2.87;;
12925;SDS011;6529;50.566;9.774;2023-06-14T07:38:43;4.47;;;3.00;;
12925;SDS011;6529;50.566;9.774;2023-06-14T07:41:10;4.67;;;2.90;;
12925;SDS011;6529;50.566;9.774;2023-06-14T07:43:35;6.93;;;3.00;;
12925;SDS011;6529;50.566;9.774;2023-06-14T07:46:01;3.70;;;2.73;;
12925;SDS011;6529;50.566;9.774;2023-06-14T07:48:27;3.10;;;2.70;;
12925;SDS011;6529;50.566;9.774;2023-06-14T07:50:53;3.23;;;2.73;;
12925;SDS011;6529;50.566;9.774;2023-06-14T07:53:18;4.90;;;3.00;;
12925;SDS011;6529;50.566;9.774;2023-06-14T07:55:44;3.63;;;2.90;;
12925;SDS011;6529;50.566;9.774;2023-06-14T07:58:09;6.13;;;3.70;;
12925;SDS011;6529;50.566;9.774;2023-06-14T08:00:35;4.90;;;2.70;;
12925;SDS011;6529;50.566;9.774;2023-06-14T08:03:01;4.13;;;2.97;;
12925;SDS011;6529;50.566;9.774;2023-06-14T08:05:28;3.27;;;2.77;;
12925;SDS011;6529;50.566;9.774;2023-06-14T08:07:54;3.67;;;2.90;;
12925;SDS011;6529;50.566;9.774;2023-06-14T08:10:20;4.50;;;2.70;;
12925;SDS011;6529;50.566;9.774;2023-06-14T08:12:46;5.17;;;2.90;;
12925;SDS011;6529;50.566;9.774;2023-06-14T08:15:13;6.23;;;2.83;;
12925;SDS011;6529;50.566;9.774;2023-06-14T08:17:39;4.03;;;2.70;;
12925;SDS011;6529;50.566;9.774;2023-06-14T08:20:05;3.70;;;2.80;;
12925;SDS011;6529;50.566;9.774;2023-06-14T08:22:31;3.47;;;2.90;;
12925;SDS011;6529;50.566;9.774;2023-06-14T08:24:59;3.43;;;2.83;;
12925;SDS011;6529;50.566;9.774;2023-06-14T08:27:26;3.00;;;2.70;;
12925;SDS011;6529;50.566;9.774;2023-06-14T08:29:51;3.03;;;2.70;;
12925;SDS011;6529;50.566;9.774;2023-06-14T08:32:17;2.87;;;2.50;;
12925;SDS011;6529;50.566;9.774;2023-06-14T08:34:43;3.07;;;2.63;;
12925;SDS011;6529;50.566;9.774;2023-06-14T08:37:08;3.47;;;2.40;;
12925;SDS011;6529;50.566;9.774;2023-06-14T08:39:34;3.43;;;2.40;;
12925;SDS011;6529;50.566;9.774;2023-06-14T08:42:00;2.70;;;2.50;;
12925;SDS011;6529;50.566;9.774;2023-06-14T08:44:28;2.70;;;2.50;;
12925;SDS011;6529;50.566;9.774;2023-06-14T08:46:55;2.83;;;2.50;;
12925;SDS011;6529;50.566;9.774;2023-06-14T08:49:24;3.13;;;2.50;;
12925;SDS011;6529;50.566;9.774;2023-06-14T08:51:56;3.07;;;2.50;;
12925;SDS011;6529;50.566;9.774;2023-06-14T08:54:23;3.80;;;2.50;;
12925;SDS011;6529;50.566;9.774;2023-06-14T08:56:52;2.80;;;2.40;;
12925;SDS011;6529;50.566;9.774;2023-06-14T08:59:22;2.60;;;2.37;;
12925;SDS011;6529;50.566;9.774;2023-06-14T09:01:50;2.53;;;2.33;;
12925;SDS011;6529;50.566;9.774;2023-06-14T09:04:17;4.07;;;2.50;;
12925;SDS011;6529;50.566;9.774;2023-06-14T09:06:44;3.00;;;2.60;;
12925;SDS011;6529;50.566;9.774;2023-06-14T09:09:10;5.43;;;2.70;;
12925;SDS011;6529;50.566;9.774;2023-06-14T09:11:37;2.90;;;2.70;;
12925;SDS011;6529;50.566;9.774;2023-06-14T09:14:02;3.42;;;2.50;;
12925;SDS011;6529;50.566;9.774;2023-06-14T09:16:28;3.25;;;2.60;;
12925;SDS011;6529;50.566;9.774;2023-06-14T09:18:58;5.75;;;2.60;;
12925;SDS011;6529;50.566;9.774;2023-06-14T09:21:23;3.10;;;2.63;;
12925;SDS011;6529;50.566;9.774;2023-06-14T09:23:49;3.25;;;2.53;;
12925;SDS011;6529;50.566;9.774;2023-06-14T09:26:15;2.80;;;2.55;;
12925;SDS011;6529;50.566;9.774;2023-06-14T09:28:43;5.27;;;2.87;;
12925;SDS011;6529;50.566;9.774;2023-06-14T09:31:13;3.17;;;2.60;;
12925;SDS011;6529;50.566;9.774;2023-06-14T09:33:47;3.10;;;2.70;;
12925;SDS011;6529;50.566;9.774;2023-06-14T09:36:18;3.58;;;2.75;;
12925;SDS011;6529;50.566;9.774;2023-06-14T09:38:55;3.83;;;2.58;;
12925;SDS011;6529;50.566;9.774;2023-06-14T09:44:01;2.95;;;2.53;;
12925;SDS011;6529;50.566;9.774;2023-06-14T09:46:29;3.65;;;2.45;;
12925;SDS011;6529;50.566;9.774;2023-06-14T09:48:58;2.40;;;2.20;;
12925;SDS011;6529;50.566;9.774;2023-06-14T09:51:25;5.30;;;2.50;;
12925;SDS011;6529;50.566;9.774;2023-06-14T09:53:52;2.40;;;2.10;;
12925;SDS011;6529;50.566;9.774;2023-06-14T09:56:26;3.25;;;2.60;;
12925;SDS011;6529;50.566;9.774;2023-06-14T09:58:55;2.50;;;2.30;;
12925;SDS011;6529;50.566;9.774;2023-06-14T10:01:22;2.45;;;2.25;;
12925;SDS011;6529;50.566;9.774;2023-06-14T10:03:52;2.85;;;2.53;;
12925;SDS011;6529;50.566;9.774;2023-06-14T10:06:24;3.88;;;2.17;;
12925;SDS011;6529;50.566;9.774;2023-06-14T10:08:52;2.42;;;2.22;;
12925;SDS011;6529;50.566;9.774;2023-06-14T10:11:28;3.10;;;2.38;;
12925;SDS011;6529;50.566;9.774;2023-06-14T10:13:54;2.35;;;2.15;;
12925;SDS011;6529;50.566;9.774;2023-06-14T10:16:29;3.58;;;2.50;;
12925;SDS011;6529;50.566;9.774;2023-06-14T10:24:16;3.80;;;2.58;;
12925;SDS011;6529;50.566;9.774;2023-06-14T10:26:51;3.03;;;2.28;;
12925;SDS011;6529;50.566;9.774;2023-06-14T10:29:18;3.75;;;2.22;;
12925;SDS011;6529;50.566;9.774;2023-06-14T10:31:45;3.33;;;2.83;;
12925;SDS011;6529;50.566;9.774;2023-06-14T10:34:11;2.47;;;2.28;;
12925;SDS011;6529;50.566;9.774;2023-06-14T10:36:45;3.35;;;2.53;;
12925;SDS011;6529;50.566;9.774;2023-06-14T10:39:14;3.85;;;2.58;;
12925;SDS011;6529;50.566;9.774;2023-06-14T10:41:42;2.45;;;2.25;;
12925;SDS011;6529;50.566;9.774;2023-06-14T10:46:53;11.18;;;4.47;;
12925;SDS011;6529;50.566;9.774;2023-06-14T10:49:19;19.98;;;6.80;;
12925;SDS011;6529;50.566;9.774;2023-06-14T10:52:07;7.35;;;3.95;;
12925;SDS011;6529;50.566;9.774;2023-06-14T10:57:31;3.25;;;2.60;;
12925;SDS011;6529;50.566;9.774;2023-06-14T10:59:58;3.15;;;2.50;;
12925;SDS011;6529;50.566;9.774;2023-06-14T11:05:55;4.43;;;2.60;;
12925;SDS011;6529;50.566;9.774;2023-06-14T11:10:58;2.25;;;2.05;;
12925;SDS011;6529;50.566;9.774;2023-06-14T11:13:25;2.50;;;2.30;;
12925;SDS011;6529;50.566;9.774;2023-06-14T11:15:51;2.60;;;2.28;;
12925;SDS011;6529;50.566;9.774;2023-06-14T11:18:21;2.30;;;2.10;;
12925;SDS011;6529;50.566;9.774;2023-06-14T11:20:52;2.90;;;2.30;;
12925;SDS011;6529;50.566;9.774;2023-06-14T11:23:18;2.60;;;2.40;;
12925;SDS011;6529;50.566;9.774;2023-06-14T11:25:48;2.55;;;2.20;;
12925;SDS011;6529;50.566;9.774;2023-06-14T11:28:15;3.05;;;2.00;;
12925;SDS011;6529;50.566;9.774;2023-06-14T11:30:40;2.90;;;2.28;;
12925;SDS011;6529;50.566;9.774;2023-06-14T11:33:09;2.55;;;2.35;;
12925;SDS011;6529;50.566;9.774;2023-06-14T11:35:35;2.72;;;2.03;;
12925;SDS011;6529;50.566;9.774;2023-06-14T11:38:01;2.65;;;2.40;;
12925;SDS011;6529;50.566;9.774;2023-06-14T11:40:30;2.33;;;2.13;;
12925;SDS011;6529;50.566;9.774;2023-06-14T11:42:59;3.08;;;2.30;;
12925;SDS011;6529;50.566;9.774;2023-06-14T11:45:25;3.35;;;2.30;;
12925;SDS011;6529;50.566;9.774;2023-06-14T11:47:53;2.72;;;2.28;;
12925;SDS011;6529;50.566;9.774;2023-06-14T11:50:23;4.72;;;2.60;;
12925;SDS011;6529;50.566;9.774;2023-06-14T11:55:24;2.75;;;2.40;;
12925;SDS011;6529;50.566;9.774;2023-06-14T11:57:50;2.50;;;2.30;;
12925;SDS011;6529;50.566;9.774;2023-06-14T12:00:18;4.30;;;2.55;;
12925;SDS011;6529;50.566;9.774;2023-06-14T12:02:53;2.50;;;2.30;;
12925;SDS011;6529;50.566;9.774;2023-06-14T12:05:21;5.88;;;2.40;;
12925;SDS011;6529;50.566;9.774;2023-06-14T12:07:47;2.60;;;2.40;;
12925;SDS011;6529;50.566;9.774;2023-06-14T12:10:13;2.47;;;2.25;;
12925;SDS011;6529;50.566;9.774;2023-06-14T12:12:40;2.97;;;2.50;;
12925;SDS011;6529;50.566;9.774;2023-06-14T12:15:07;3.53;;;2.10;;
12925;SDS011;6529;50.566;9.774;2023-06-14T12:17:34;2.50;;;2.30;;
12925;SDS011;6529;50.566;9.774;2023-06-14T12:20:05;3.17;;;2.35;;
12925;SDS011;6529;50.566;9.774;2023-06-14T12:22:36;3.55;;;2.10;;
12925;SDS011;6529;50.566;9.774;2023-06-14T12:25:02;2.78;;;2.22;;
12925;SDS011;6529;50.566;9.774;2023-06-14T12:27:29;2.47;;;2.20;;
12925;SDS011;6529;50.566;9.774;2023-06-14T12:29:58;2.67;;;2.10;;
12925;SDS011;6529;50.566;9.774;2023-06-14T12:32:24;2.20;;;2.00;;
12925;SDS011;6529;50.566;9.774;2023-06-14T12:34:50;2.58;;;2.38;;
12925;SDS011;6529;50.566;9.774;2023-06-14T12:37:15;2.42;;;2.22;;
12925;SDS011;6529;50.566;9.774;2023-06-14T12:39:41;3.15;;;2.40;;
12925;SDS011;6529;50.566;9.774;2023-06-14T12:42:07;3.13;;;2.22;;
12925;SDS011;6529;50.566;9.774;2023-06-14T12:44:32;2.40;;;2.20;;
12925;SDS011;6529;50.566;9.774;2023-06-14T12:47:00;3.28;;;2.22;;
12925;SDS011;6529;50.566;9.774;2023-06-14T12:49:26;2.30;;;2.10;;
12925;SDS011;6529;50.566;9.774;2023-06-14T12:51:52;3.97;;;2.50;;
12925;SDS011;6529;50.566;9.774;2023-06-14T12:54:17;2.42;;;2.20;;
12925;SDS011;6529;50.566;9.774;2023-06-14T12:56:43;4.05;;;2.30;;
12925;SDS011;6529;50.566;9.774;2023-06-14T12:59:09;2.20;;;2.00;;
12925;SDS011;6529;50.566;9.774;2023-06-14T13:04:03;2.30;;;2.10;;
12925;SDS011;6529;50.566;9.774;2023-06-14T13:06:28;2.40;;;2.10;;
12925;SDS011;6529;50.566;9.774;2023-06-14T13:08:56;2.47;;;2.28;;
12925;SDS011;6529;50.566;9.774;2023-06-14T13:11:22;2.75;;;2.50;;
12925;SDS011;6529;50.566;9.774;2023-06-14T13:13:48;2.70;;;2.03;;
12925;SDS011;6529;50.566;9.774;2023-06-14T13:16:13;2.92;;;2.40;;
12925;SDS011;6529;50.566;9.774;2023-06-14T13:18:39;3.65;;;2.38;;
12925;SDS011;6529;50.566;9.774;2023-06-14T13:21:05;2.90;;;2.38;;
12925;SDS011;6529;50.566;9.774;2023-06-14T13:23:30;2.47;;;2.28;;
12925;SDS011;6529;50.566;9.774;2023-06-14T13:25:56;2.30;;;2.10;;
12925;SDS011;6529;50.566;9.774;2023-06-14T13:28:21;5.63;;;2.47;;
12925;SDS011;6529;50.566;9.774;2023-06-14T13:30:47;2.60;;;2.40;;
12925;SDS011;6529;50.566;9.774;2023-06-14T13:33:13;3.45;;;2.00;;
12925;SDS011;6529;50.566;9.774;2023-06-14T13:35:38;3.70;;;2.20;;
12925;SDS011;6529;50.566;9.774;2023-06-14T13:38:04;2.40;;;2.20;;
12925;SDS011;6529;50.566;9.774;2023-06-14T13:40:30;2.63;;;2.20;;
12925;SDS011;6529;50.566;9.774;2023-06-14T13:42:55;2.60;;;2.40;;
12925;SDS011;6529;50.566;9.774;2023-06-14T13:45:21;2.85;;;2.10;;
12925;SDS011;6529;50.566;9.774;2023-06-14T13:47:46;3.70;;;2.22;;
12925;SDS011;6529;50.566;9.774;2023-06-14T13:50:13;3.33;;;2.30;;
12925;SDS011;6529;50.566;9.774;2023-06-14T13:52:39;2.42;;;2.22;;
12925;SDS011;6529;50.566;9.774;2023-06-14T13:55:05;2.35;;;1.98;;
12925;SDS011;6529;50.566;9.774;2023-06-14T13:57:31;2.42;;;2.17;;
12925;SDS011;6529;50.566;9.774;2023-06-14T13:59:57;2.42;;;2.15;;
12925;SDS011;6529;50.566;9.774;2023-06-14T14:02:26;2.58;;;2.38;;
12925;SDS011;6529;50.566;9.774;2023-06-14T14:04:53;3.25;;;2.20;;
12925;SDS011;6529;50.566;9.774;2023-06-14T14:07:19;3.15;;;2.40;;
12925;SDS011;6529;50.566;9.774;2023-06-14T14:09:45;2.50;;;2.30;;
12925;SDS011;6529;50.566;9.774;2023-06-14T14:12:12;3.10;;;2.30;;
12925;SDS011;6529;50.566;9.774;2023-06-14T14:14:39;2.95;;;2.08;;
12925;SDS011;6529;50.566;9.774;2023-06-14T14:17:05;4.28;;;2.65;;
12925;SDS011;6529;50.566;9.774;2023-06-14T14:19:31;3.58;;;2.20;;
12925;SDS011;6529;50.566;9.774;2023-06-14T14:21:57;2.42;;;2.22;;
12925;SDS011;6529;50.566;9.774;2023-06-14T14:24:23;3.25;;;2.30;;
12925;SDS011;6529;50.566;9.774;2023-06-14T14:26:49;4.05;;;2.20;;
12925;SDS011;6529;50.566;9.774;2023-06-14T14:29:18;2.40;;;2.20;;
12925;SDS011;6529;50.566;9.774;2023-06-14T14:31:44;3.55;;;2.53;;
12925;SDS011;6529;50.566;9.774;2023-06-14T14:34:10;4.15;;;2.47;;
12925;SDS011;6529;50.566;9.774;2023-06-14T14:36:35;3.53;;;2.28;;
12925;SDS011;6529;50.566;9.774;2023-06-14T14:39:03;3.72;;;2.50;;
12925;SDS011;6529;50.566;9.774;2023-06-14T14:41:29;2.60;;;2.40;;
12925;SDS011;6529;50.566;9.774;2023-06-14T14:43:55;2.30;;;2.10;;
12925;SDS011;6529;50.566;9.774;2023-06-14T14:46:20;3.75;;;2.28;;
12925;SDS011;6529;50.566;9.774;2023-06-14T14:48:46;2.30;;;2.10;;
12925;SDS011;6529;50.566;9.774;2023-06-14T14:51:12;2.60;;;2.40;;
12925;SDS011;6529;50.566;9.774;2023-06-14T14:53:37;3.15;;;2.40;;
12925;SDS011;6529;50.566;9.774;2023-06-14T14:56:03;2.40;;;2.20;;
12925;SDS011;6529;50.566;9.774;2023-06-14T14:58:29;3.17;;;2.22;;
12925;SDS011;6529;50.566;9.774;2023-06-14T15:00:54;2.75;;;2.20;;
12925;SDS011;6529;50.566;9.774;2023-06-14T15:03:20;3.67;;;2.45;;
12925;SDS011;6529;50.566;9.774;2023-06-14T15:05:46;2.83;;;2.60;;
12925;SDS011;6529;50.566;9.774;2023-06-14T15:08:12;4.60;;;2.33;;
12925;SDS011;6529;50.566;9.774;2023-06-14T15:10:37;3.55;;;2.42;;
12925;SDS011;6529;50.566;9.774;2023-06-14T15:13:06;3.03;;;2.28;;
12925;SDS011;6529;50.566;9.774;2023-06-14T15:15:32;2.47;;;2.20;;
12925;SDS011;6529;50.566;9.774;2023-06-14T15:17:59;2.72;;;2.40;;
12925;SDS011;6529;50.566;9.774;2023-06-14T15:20:25;3.67;;;2.40;;
12925;SDS011;6529;50.566;9.774;2023-06-14T15:22:50;4.10;;;2.60;;
12925;SDS011;6529;50.566;9.774;2023-06-14T15:25:17;3.58;;;2.40;;
12925;SDS011;6529;50.566;9.774;2023-06-14T15:27:43;2.85;;;2.20;;